createdAt,value
2022-08-11T00:01:33.727Z,65.85
2022-08-11T00:02:33.851Z,65.75
2022-08-11T00:04:27.824Z,65.72
2022-08-11T00:05:27.807Z,65.72
2022-08-11T00:07:22.121Z,66.01
2022-08-11T00:08:22.105Z,66.24
2022-08-11T00:10:16.311Z,66.20
2022-08-11T00:11:16.308Z,65.82
2022-08-11T00:13:10.440Z,65.63
2022-08-11T00:14:10.426Z,65.72
2022-08-11T00:16:04.606Z,65.82
2022-08-11T00:17:04.598Z,66.27
2022-08-11T00:18:59.533Z,66.17
2022-08-11T00:20:13.086Z,66.08
2022-08-11T00:22:05.101Z,67.11
2022-08-11T00:22:52.798Z,67.01
2022-08-11T00:24:53.903Z,67.20
2022-08-11T00:25:46.907Z,67.40
2022-08-11T00:27:41.015Z,67.40
2022-08-11T00:28:41.005Z,67.40
2022-08-11T00:30:34.728Z,67.97
2022-08-11T00:31:34.722Z,67.97
2022-08-11T00:33:41.138Z,67.97
2022-08-11T00:34:28.803Z,68.07
2022-08-11T00:36:25.618Z,67.49
2022-08-11T00:37:22.914Z,67.88
2022-08-11T00:39:16.762Z,67.97
2022-08-11T00:40:16.709Z,68.26
2022-08-11T00:42:10.844Z,67.69
2022-08-11T00:43:10.901Z,68.07
2022-08-11T00:45:04.980Z,68.17
2022-08-11T00:46:04.966Z,67.78
2022-08-11T00:48:00.254Z,68.17
2022-08-11T00:48:59.064Z,67.69
2022-08-11T00:50:53.208Z,67.59
2022-08-11T00:52:04.152Z,68.17
2022-08-11T00:53:47.294Z,68.65
2022-08-11T00:54:47.274Z,68.84
2022-08-11T00:56:41.370Z,69.13
2022-08-11T00:57:41.363Z,68.75
2022-08-11T00:59:36.045Z,69.32
2022-08-11T01:00:35.503Z,69.71
2022-08-11T01:02:30.809Z,69.52
2022-08-11T01:03:29.762Z,70.00
2022-08-11T01:05:23.993Z,70.39
2022-08-11T01:06:23.970Z,70.48
2022-08-11T01:08:19.224Z,70.74
2022-08-11T01:09:22.690Z,70.84
2022-08-11T01:11:13.304Z,70.84
2022-08-11T01:12:13.302Z,71.12
2022-08-11T01:14:07.477Z,71.96
2022-08-11T01:15:07.461Z,72.25
2022-08-11T01:17:01.659Z,72.54
2022-08-11T01:18:01.654Z,73.31
2022-08-11T01:20:45.102Z,73.11
2022-08-11T01:20:55.742Z,73.31
2022-08-11T01:22:49.903Z,73.69
2022-08-11T01:23:49.895Z,73.69
2022-08-11T01:25:57.245Z,73.21
2022-08-11T01:26:44.016Z,72.44
2022-08-11T01:28:38.328Z,72.73
2022-08-11T01:29:38.314Z,72.92
2022-08-11T01:31:32.488Z,73.57
2022-08-11T01:32:32.524Z,73.31
2022-08-11T01:34:26.720Z,73.69
2022-08-11T01:35:26.696Z,73.47
2022-08-11T01:37:21.807Z,73.57
2022-08-11T01:38:21.803Z,73.95
2022-08-11T01:40:15.942Z,74.52
2022-08-11T01:41:15.923Z,74.52
2022-08-11T01:43:10.033Z,74.91
2022-08-11T01:44:12.642Z,74.72
2022-08-11T01:46:04.276Z,74.82
2022-08-11T01:47:04.258Z,74.82
2022-08-11T01:48:58.376Z,75.01
2022-08-11T01:50:07.557Z,75.10
2022-08-11T01:51:52.550Z,75.65
2022-08-11T01:52:52.543Z,75.74
2022-08-11T01:54:46.666Z,75.74
2022-08-11T01:55:46.649Z,75.26
2022-08-11T01:57:40.732Z,75.45
2022-08-11T01:58:44.133Z,75.55
2022-08-11T02:00:35.090Z,75.65
2022-08-11T02:01:35.015Z,75.65
2022-08-11T02:03:29.096Z,75.55
2022-08-11T02:04:29.079Z,76.03
2022-08-11T02:06:23.175Z,76.32
2022-08-11T02:07:23.169Z,76.32
2022-08-11T02:09:17.317Z,76.51
2022-08-11T02:10:17.298Z,76.51
2022-08-11T02:12:11.455Z,76.13
2022-08-11T02:13:11.446Z,76.61
2022-08-11T02:15:05.795Z,76.32
2022-08-11T02:16:05.531Z,76.42
2022-08-11T02:17:59.622Z,76.42
2022-08-11T02:18:59.611Z,76.23
2022-08-11T02:20:53.759Z,76.80
2022-08-11T02:21:53.745Z,76.42
2022-08-11T02:24:06.786Z,77.48
2022-08-11T02:24:47.956Z,77.09
2022-08-11T02:26:43.163Z,77.28
2022-08-11T02:27:43.152Z,76.48
2022-08-11T02:29:37.458Z,77.78
2022-08-11T02:30:37.442Z,78.08
2022-08-11T02:32:31.710Z,78.52
2022-08-11T02:33:31.695Z,77.98
2022-08-11T02:35:26.482Z,78.46
2022-08-11T02:36:26.467Z,77.88
2022-08-11T02:38:20.617Z,77.83
2022-08-11T02:39:20.666Z,77.63
2022-08-11T02:41:14.823Z,77.63
2022-08-11T02:42:32.706Z,77.34
2022-08-11T02:44:08.904Z,77.53
2022-08-11T02:45:08.889Z,78.11
2022-08-11T02:47:03.106Z,78.21
2022-08-11T02:48:03.099Z,77.83
2022-08-11T02:50:02.771Z,77.25
2022-08-11T02:50:57.191Z,77.83
2022-08-11T02:52:52.438Z,77.83
2022-08-11T02:53:56.339Z,77.98
2022-08-11T02:55:57.115Z,78.08
2022-08-11T02:56:46.542Z,78.02
2022-08-11T02:58:40.749Z,77.31
2022-08-11T02:59:40.741Z,77.88
2022-08-11T03:01:34.891Z,78.56
2022-08-11T03:02:34.846Z,78.08
2022-08-11T03:04:37.529Z,78.88
2022-08-11T03:05:28.935Z,79.08
2022-08-11T03:07:29.130Z,78.98
2022-08-11T03:08:23.128Z,78.88
2022-08-11T03:10:17.240Z,78.50
2022-08-11T03:11:17.223Z,78.69
2022-08-11T03:13:11.308Z,78.98
2022-08-11T03:14:11.302Z,78.69
2022-08-11T03:16:05.467Z,79.52
2022-08-11T03:17:05.449Z,79.71
2022-08-11T03:18:59.597Z,80.14
2022-08-11T03:19:59.591Z,79.85
2022-08-11T03:22:03.153Z,80.00
2022-08-11T03:22:53.774Z,79.90
2022-08-11T03:24:47.889Z,80.10
2022-08-11T03:25:47.864Z,79.90
2022-08-11T03:27:42.068Z,80.48
2022-08-11T03:28:42.059Z,80.58
2022-08-11T03:30:36.176Z,80.77
2022-08-11T03:31:36.155Z,80.77
2022-08-11T03:33:31.394Z,81.16
2022-08-11T03:34:31.388Z,81.25
2022-08-11T03:36:25.476Z,81.25
2022-08-11T03:37:25.461Z,81.25
2022-08-11T03:39:19.684Z,81.16
2022-08-11T03:40:19.537Z,81.35
2022-08-11T03:42:13.652Z,81.16
2022-08-11T03:43:13.631Z,81.54
2022-08-11T03:45:07.769Z,82.08
2022-08-11T03:46:07.752Z,82.46
2022-08-11T03:48:01.905Z,82.50
2022-08-11T03:49:01.902Z,82.41
2022-08-11T03:50:56.046Z,82.50
2022-08-11T03:51:56.024Z,82.60
2022-08-11T03:53:50.166Z,82.41
2022-08-11T03:54:50.148Z,82.31
2022-08-11T03:56:44.353Z,82.12
2022-08-11T03:57:44.335Z,82.50
2022-08-11T03:59:38.519Z,82.50
2022-08-11T04:00:38.514Z,82.79
2022-08-11T04:02:32.659Z,82.98
2022-08-11T04:03:32.591Z,82.89
2022-08-11T04:05:26.720Z,83.18
2022-08-11T04:06:26.715Z,82.70
2022-08-11T04:08:20.852Z,83.33
2022-08-11T04:09:20.830Z,83.62
2022-08-11T04:11:14.932Z,83.72
2022-08-11T04:12:35.284Z,84.10
2022-08-11T04:14:09.046Z,84.23
2022-08-11T04:15:09.044Z,84.67
2022-08-11T04:17:03.215Z,84.48
2022-08-11T04:18:03.187Z,84.19
2022-08-11T04:19:58.313Z,84.39
2022-08-11T04:20:58.292Z,84.33
2022-08-11T04:22:52.574Z,84.29
2022-08-11T04:24:13.250Z,84.53
2022-08-11T04:25:57.769Z,84.48
2022-08-11T04:26:46.657Z,84.39
2022-08-11T04:28:43.119Z,85.16
2022-08-11T04:30:03.824Z,85.25
2022-08-11T04:31:51.960Z,85.93
2022-08-11T04:32:35.091Z,85.93
2022-08-11T04:34:29.192Z,85.93
2022-08-11T04:35:29.186Z,85.74
2022-08-11T04:37:23.542Z,86.51
2022-08-11T04:38:23.527Z,86.99
2022-08-11T04:40:17.616Z,86.60
2022-08-11T04:41:17.609Z,86.79
2022-08-11T04:43:11.700Z,86.79
2022-08-11T04:44:11.689Z,86.51
2022-08-11T04:46:06.794Z,86.79
2022-08-11T04:47:06.780Z,86.99
2022-08-11T04:49:00.892Z,86.60
2022-08-11T04:50:00.887Z,86.60
2022-08-11T04:51:55.094Z,86.79
2022-08-11T04:52:55.070Z,87.18
2022-08-11T04:54:49.169Z,86.51
2022-08-11T04:55:49.163Z,86.99
2022-08-11T04:57:43.279Z,87.27
2022-08-11T04:58:43.259Z,87.27
2022-08-11T05:00:37.336Z,87.18
2022-08-11T05:01:37.836Z,87.08
2022-08-11T05:03:31.442Z,86.99
2022-08-11T05:04:31.428Z,87.08
2022-08-11T05:06:25.186Z,86.60
2022-08-11T05:07:25.171Z,86.99
2022-08-11T05:09:19.276Z,86.99
2022-08-11T05:10:19.267Z,87.18
2022-08-11T05:12:13.352Z,87.18
2022-08-11T05:13:13.340Z,87.37
2022-08-11T05:15:08.438Z,87.66
2022-08-11T05:16:08.433Z,87.37
2022-08-11T05:18:03.547Z,87.37
2022-08-11T05:19:03.532Z,87.37
2022-08-11T05:20:58.801Z,87.66
2022-08-11T05:21:57.786Z,87.46
2022-08-11T05:23:51.881Z,87.76
2022-08-11T05:24:51.864Z,87.66
2022-08-11T05:26:48.875Z,87.46
2022-08-11T05:27:45.962Z,87.42
2022-08-11T05:29:40.160Z,88.04
2022-08-11T05:30:40.154Z,88.33
2022-08-11T05:32:35.393Z,88.33
2022-08-11T05:33:35.360Z,88.14
2022-08-11T05:36:01.969Z,88.33
2022-08-11T05:36:29.646Z,88.53
2022-08-11T05:38:23.782Z,87.95
2022-08-11T05:39:36.122Z,88.04
2022-08-11T05:41:17.880Z,88.04
2022-08-11T05:42:29.517Z,87.56
2022-08-11T05:44:20.394Z,88.04
2022-08-11T05:45:15.663Z,87.90
2022-08-11T05:47:06.235Z,86.45
2022-08-11T05:48:06.217Z,86.22
2022-08-11T05:50:00.814Z,86.60
2022-08-11T05:51:00.533Z,86.22
2022-08-11T05:52:55.505Z,86.99
2022-08-11T05:53:54.629Z,86.60
2022-08-11T05:55:58.368Z,86.79
2022-08-11T05:56:48.734Z,87.03
2022-08-11T05:58:43.163Z,85.83
2022-08-11T05:59:42.470Z,86.31
2022-08-11T06:01:36.601Z,86.65
2022-08-11T06:02:36.685Z,86.51
2022-08-11T06:04:30.640Z,86.26
2022-08-11T06:05:30.627Z,85.54
2022-08-11T06:07:25.032Z,85.54
2022-08-11T06:08:24.920Z,85.44
2022-08-11T06:10:18.993Z,85.16
2022-08-11T06:11:18.987Z,84.87
2022-08-11T06:13:13.093Z,84.67
2022-08-11T06:14:13.085Z,85.16
2022-08-11T06:16:07.400Z,85.83
2022-08-11T06:17:07.378Z,85.16
2022-08-11T06:19:01.555Z,85.06
2022-08-11T06:20:04.222Z,84.87
2022-08-11T06:21:55.616Z,84.53
2022-08-11T06:22:55.608Z,85.39
2022-08-11T06:24:49.742Z,85.00
2022-08-11T06:25:49.728Z,84.33
2022-08-11T06:27:43.818Z,84.72
2022-08-11T06:28:43.804Z,85.24
2022-08-11T06:30:38.540Z,86.30
2022-08-11T06:31:38.528Z,85.72
2022-08-11T06:33:32.624Z,84.70
2022-08-11T06:34:32.608Z,84.90
2022-08-11T06:36:26.710Z,84.42
2022-08-11T06:37:26.705Z,83.26
2022-08-11T06:39:20.870Z,83.05
2022-08-11T06:40:20.778Z,81.93
2022-08-11T06:42:14.930Z,79.85
2022-08-11T06:43:14.907Z,78.73
2022-08-11T06:45:10.054Z,77.17
2022-08-11T06:46:10.059Z,76.24
2022-08-11T06:48:04.169Z,75.31
2022-08-11T06:49:04.153Z,74.86
2022-08-11T06:50:58.215Z,72.86
2022-08-11T06:52:00.619Z,72.80
2022-08-11T06:54:03.465Z,71.28
2022-08-11T06:54:52.305Z,71.22
2022-08-11T06:56:46.444Z,70.73
2022-08-11T06:57:46.439Z,70.45
2022-08-11T06:59:40.530Z,70.47
2022-08-11T07:00:40.514Z,71.77
2022-08-11T07:02:34.578Z,70.90
2022-08-11T07:03:34.344Z,70.90
2022-08-11T07:05:28.453Z,70.64
2022-08-11T07:06:28.452Z,69.80
2022-08-11T07:08:34.197Z,69.35
2022-08-11T07:09:22.714Z,69.45
2022-08-11T07:11:16.990Z,68.51
2022-08-11T07:12:16.983Z,68.32
2022-08-11T07:14:11.242Z,69.67
2022-08-11T07:15:11.230Z,69.19
2022-08-11T07:17:05.390Z,68.64
2022-08-11T07:18:05.381Z,68.54
2022-08-11T07:19:59.509Z,65.56
2022-08-11T07:21:02.185Z,65.88
2022-08-11T07:22:53.663Z,64.81
2022-08-11T07:23:53.646Z,64.07
2022-08-11T07:25:48.769Z,63.39
2022-08-11T07:26:48.760Z,62.80
2022-08-11T07:28:42.863Z,62.05
2022-08-11T07:29:42.852Z,61.50
2022-08-11T07:31:36.931Z,60.33
2022-08-11T07:32:37.076Z,61.14
2022-08-11T07:34:31.061Z,60.19
2022-08-11T07:35:31.051Z,59.61
2022-08-11T07:37:26.217Z,59.90
2022-08-11T07:38:26.206Z,59.16
2022-08-11T07:40:20.300Z,58.97
2022-08-11T07:41:20.298Z,58.87
2022-08-11T07:43:14.235Z,59.35
2022-08-11T07:44:14.225Z,60.46
2022-08-11T07:46:08.312Z,58.73
2022-08-11T07:47:08.316Z,58.76
2022-08-11T07:49:02.473Z,58.17
2022-08-11T07:50:02.474Z,58.66
2022-08-11T07:51:57.581Z,59.54
2022-08-11T07:52:57.580Z,58.17
2022-08-11T07:54:51.687Z,58.34
2022-08-11T07:55:53.604Z,58.63
2022-08-11T07:58:13.920Z,59.19
2022-08-11T07:58:52.438Z,59.48
2022-08-11T08:00:40.974Z,59.55
2022-08-11T08:01:41.049Z,60.52
2022-08-11T08:03:35.199Z,61.60
2022-08-11T08:04:35.191Z,60.82
2022-08-11T08:06:36.079Z,59.55
2022-08-11T08:07:29.318Z,60.30
2022-08-11T08:09:23.483Z,60.49
2022-08-11T08:10:23.473Z,61.05
2022-08-11T08:12:17.252Z,61.05
2022-08-11T08:13:17.251Z,60.44
2022-08-11T08:15:11.399Z,60.82
2022-08-11T08:16:11.387Z,62.09
2022-08-11T08:18:09.397Z,60.66
2022-08-11T08:19:05.529Z,60.27
2022-08-11T08:21:00.660Z,60.46
2022-08-11T08:22:01.105Z,59.39
2022-08-11T08:23:56.577Z,59.62
2022-08-11T08:24:54.778Z,59.52
2022-08-11T08:26:51.800Z,59.64
2022-08-11T08:27:48.928Z,58.77
2022-08-11T08:29:43.094Z,58.77
2022-08-11T08:30:43.084Z,58.99
2022-08-11T08:32:37.233Z,58.50
2022-08-11T08:33:37.012Z,58.02
2022-08-11T08:35:33.031Z,57.07
2022-08-11T08:36:31.104Z,57.17
2022-08-11T08:38:25.258Z,58.14
2022-08-11T08:39:25.304Z,56.87
2022-08-11T08:41:19.409Z,56.75
2022-08-11T08:42:19.405Z,57.75
2022-08-11T08:45:13.572Z,56.10
2022-08-11T08:47:08.674Z,56.77
2022-08-11T08:48:08.677Z,56.38
2022-08-11T08:50:02.787Z,56.58
2022-08-11T08:51:02.783Z,56.71
2022-08-11T08:52:56.933Z,55.73
2022-08-11T08:53:58.615Z,56.22
2022-08-11T08:55:51.068Z,55.96
2022-08-11T08:56:51.059Z,55.76
2022-08-11T08:58:45.199Z,54.59
2022-08-11T08:59:48.491Z,54.49
2022-08-11T09:01:39.375Z,55.00
2022-08-11T09:02:39.327Z,54.81
2022-08-11T09:04:34.452Z,54.39
2022-08-11T09:05:34.449Z,54.59
2022-08-11T09:07:32.620Z,55.27
2022-08-11T09:08:28.580Z,54.42
2022-08-11T09:10:22.655Z,54.71
2022-08-11T09:11:22.648Z,53.76
2022-08-11T09:13:16.736Z,53.47
2022-08-11T09:14:16.742Z,52.29
2022-08-11T09:16:11.887Z,53.98
2022-08-11T09:17:11.877Z,52.51
2022-08-11T09:19:06.072Z,52.25
2022-08-11T09:20:06.061Z,51.86
2022-08-11T09:22:00.182Z,50.88
2022-08-11T09:24:06.453Z,51.27
2022-08-11T09:24:54.335Z,49.92
2022-08-11T09:25:54.331Z,49.41
2022-08-11T09:27:50.353Z,50.95
2022-08-11T09:28:48.096Z,51.25
2022-08-11T09:30:41.864Z,51.27
2022-08-11T09:31:41.854Z,51.39
2022-08-11T09:33:36.075Z,50.12
2022-08-11T09:34:36.083Z,50.51
2022-08-11T09:36:30.195Z,50.34
2022-08-11T09:37:55.385Z,47.99
2022-08-11T09:39:25.581Z,48.99
2022-08-11T09:40:27.183Z,48.38
2022-08-11T09:42:23.653Z,48.97
2022-08-11T09:43:19.620Z,49.48
2022-08-11T09:45:13.434Z,49.97
2022-08-11T09:46:13.435Z,50.27
2022-08-11T09:48:08.538Z,48.94
2022-08-11T09:49:08.542Z,46.59
2022-08-11T09:51:02.649Z,46.27
2022-08-11T09:52:05.392Z,46.86
2022-08-11T09:54:03.748Z,47.37
2022-08-11T09:54:56.845Z,46.78
2022-08-11T09:56:51.023Z,45.90
2022-08-11T09:57:51.019Z,47.57
2022-08-11T09:59:45.163Z,45.80
2022-08-11T10:00:45.163Z,45.68
2022-08-11T10:02:39.350Z,46.72
2022-08-11T10:03:40.441Z,47.11
2022-08-11T10:05:33.682Z,46.94
2022-08-11T10:06:34.572Z,45.66
2022-08-11T10:08:28.837Z,45.70
2022-08-11T10:09:28.836Z,46.27
2022-08-11T10:11:23.002Z,46.81
2022-08-11T10:12:22.996Z,45.04
2022-08-11T10:14:32.825Z,45.80
2022-08-11T10:15:18.171Z,46.88
2022-08-11T10:17:13.583Z,46.30
2022-08-11T10:18:13.577Z,45.92
2022-08-11T10:20:07.761Z,45.45
2022-08-11T10:21:07.754Z,45.04
2022-08-11T10:23:02.881Z,45.63
2022-08-11T10:24:06.048Z,45.04
2022-08-11T10:25:57.351Z,45.63
2022-08-11T10:26:57.341Z,45.04
2022-08-11T10:29:12.003Z,45.28
2022-08-11T10:29:52.125Z,45.18
2022-08-11T10:31:57.913Z,45.10
2022-08-11T10:32:57.778Z,44.32
2022-08-11T10:34:39.778Z,44.30
2022-08-11T10:35:39.802Z,44.67
2022-08-11T10:38:08.817Z,44.40
2022-08-11T10:38:33.952Z,44.10
2022-08-11T10:40:28.516Z,44.40
2022-08-11T10:41:28.316Z,44.10
2022-08-11T10:44:03.059Z,44.40
2022-08-11T10:44:23.500Z,44.30
2022-08-11T10:46:18.622Z,44.32
2022-08-11T10:47:18.614Z,45.23
2022-08-11T10:49:12.761Z,43.55
2022-08-11T10:50:12.784Z,43.46
2022-08-11T10:52:07.176Z,43.71
2022-08-11T10:53:07.129Z,44.49
2022-08-11T10:55:01.510Z,44.12
2022-08-11T10:56:01.562Z,43.93
2022-08-11T10:58:05.116Z,43.83
2022-08-11T10:58:57.532Z,44.15
2022-08-11T11:00:49.780Z,43.97
2022-08-11T11:01:49.752Z,43.10
2022-08-11T11:03:44.075Z,43.30
2022-08-11T11:04:45.574Z,42.93
2022-08-11T11:06:38.271Z,42.63
2022-08-11T11:07:41.499Z,42.54
2022-08-11T11:09:32.665Z,42.04
2022-08-11T11:10:32.478Z,42.61
2022-08-11T11:12:27.590Z,42.91
2022-08-11T11:13:27.592Z,42.22
2022-08-11T11:15:21.918Z,41.93
2022-08-11T11:16:21.919Z,42.12
2022-08-11T11:18:16.044Z,42.22
2022-08-11T11:19:16.053Z,41.61
2022-08-11T11:21:10.192Z,42.40
2022-08-11T11:22:10.190Z,41.51
2022-08-11T11:24:04.314Z,41.61
2022-08-11T11:25:04.323Z,41.77
2022-08-11T11:26:58.694Z,43.71
2022-08-11T11:27:58.685Z,43.59
2022-08-11T11:29:52.882Z,43.74
2022-08-11T11:30:52.893Z,44.04
2022-08-11T11:32:49.661Z,44.60
2022-08-11T11:34:06.904Z,45.12
2022-08-11T11:35:41.161Z,43.84
2022-08-11T11:36:41.160Z,43.92
2022-08-11T11:38:36.363Z,45.00
2022-08-11T11:39:36.435Z,46.08
2022-08-11T11:41:30.567Z,45.19
2022-08-11T11:42:30.564Z,45.88
2022-08-11T11:44:24.903Z,45.51
2022-08-11T11:45:24.902Z,45.00
2022-08-11T11:47:19.147Z,44.90
2022-08-11T11:48:19.120Z,45.02
2022-08-11T11:50:13.292Z,45.19
2022-08-11T11:51:13.236Z,45.09
2022-08-11T11:53:07.343Z,45.00
2022-08-11T11:54:07.348Z,44.21
2022-08-11T11:56:01.600Z,44.98
2022-08-11T11:57:01.593Z,44.27
2022-08-11T11:58:55.890Z,45.05
2022-08-11T11:59:55.896Z,45.05
2022-08-11T12:01:50.179Z,44.95
2022-08-11T12:02:50.133Z,45.05
2022-08-11T12:04:44.224Z,45.54
2022-08-11T12:05:44.218Z,44.95
2022-08-11T12:07:38.157Z,45.05
2022-08-11T12:08:38.072Z,45.05
2022-08-11T12:10:32.133Z,45.64
2022-08-11T12:11:32.115Z,45.34
2022-08-11T12:13:27.242Z,43.77
2022-08-11T12:14:27.238Z,44.85
2022-08-11T12:16:33.231Z,45.64
2022-08-11T12:17:21.345Z,44.78
2022-08-11T12:19:15.466Z,45.05
2022-08-11T12:20:31.863Z,44.95
2022-08-11T12:22:09.602Z,44.85
2022-08-11T12:23:09.598Z,44.95
2022-08-11T12:25:03.888Z,44.27
2022-08-11T12:26:25.892Z,44.93
2022-08-11T12:27:58.143Z,43.76
2022-08-11T12:28:58.135Z,44.24
2022-08-11T12:30:54.181Z,45.05
2022-08-11T12:31:52.954Z,45.03
2022-08-11T12:33:47.094Z,45.83
2022-08-11T12:34:47.076Z,45.34
2022-08-11T12:36:41.217Z,44.48
2022-08-11T12:37:41.582Z,45.05
2022-08-11T12:40:16.527Z,44.88
2022-08-11T12:40:42.518Z,43.80
2022-08-11T12:42:29.436Z,44.07
2022-08-11T12:43:38.084Z,44.37
2022-08-11T12:45:23.616Z,44.24
2022-08-11T12:46:23.618Z,44.83
2022-08-11T12:49:00.832Z,46.11
2022-08-11T12:49:17.767Z,45.05
2022-08-11T12:51:12.111Z,44.95
2022-08-11T12:52:15.546Z,45.54
2022-08-11T12:54:06.253Z,45.15
2022-08-11T12:55:09.748Z,45.34
2022-08-11T12:57:00.399Z,44.46
2022-08-11T12:58:00.387Z,44.27
2022-08-11T12:59:56.542Z,44.76
2022-08-11T13:00:56.603Z,44.05
2022-08-11T13:02:50.716Z,45.03
2022-08-11T13:03:52.329Z,46.23
2022-08-11T13:05:45.413Z,45.05
2022-08-11T13:06:44.844Z,45.05
2022-08-11T13:08:38.976Z,44.66
2022-08-11T13:09:38.954Z,44.85
2022-08-11T13:11:54.499Z,44.37
2022-08-11T13:12:33.172Z,44.93
2022-08-11T13:14:28.357Z,44.83
2022-08-11T13:15:28.353Z,45.62
2022-08-11T13:17:43.733Z,46.50
2022-08-11T13:18:23.450Z,45.25
2022-08-11T13:20:17.777Z,44.93
2022-08-11T13:21:20.838Z,44.93
2022-08-11T13:23:12.007Z,45.73
2022-08-11T13:24:11.998Z,45.47
2022-08-11T13:26:06.150Z,44.19
2022-08-11T13:27:06.150Z,44.48
2022-08-11T13:29:00.417Z,44.27
2022-08-11T13:30:00.407Z,44.95
2022-08-11T13:31:54.582Z,44.95
2022-08-11T13:32:54.570Z,44.66
2022-08-11T13:34:48.719Z,43.80
2022-08-11T13:35:48.733Z,45.17
2022-08-11T13:38:19.756Z,45.37
2022-08-11T13:38:44.490Z,45.39
2022-08-11T13:40:54.689Z,45.00
2022-08-11T13:41:37.020Z,44.02
2022-08-11T13:43:31.125Z,44.41
2022-08-11T13:44:31.114Z,43.80
2022-08-11T13:46:26.282Z,44.98
2022-08-11T13:47:26.280Z,45.17
2022-08-11T13:49:20.485Z,44.48
2022-08-11T13:50:20.475Z,45.07
2022-08-11T13:52:14.579Z,43.98
2022-08-11T13:53:14.567Z,44.95
2022-08-11T13:55:08.661Z,44.58
2022-08-11T13:56:08.667Z,44.38
2022-08-11T13:58:08.502Z,44.88
2022-08-11T13:59:02.770Z,44.09
2022-08-11T14:00:56.932Z,44.68
2022-08-11T14:02:21.346Z,45.07
2022-08-11T14:04:29.888Z,43.99
2022-08-11T14:04:51.075Z,44.09
2022-08-11T14:06:45.185Z,43.70
2022-08-11T14:07:45.186Z,43.80
2022-08-11T14:09:39.303Z,44.09
2022-08-11T14:10:39.294Z,44.17
2022-08-11T14:12:33.473Z,44.15
2022-08-11T14:13:42.281Z,44.85
2022-08-11T14:15:27.687Z,44.78
2022-08-11T14:16:27.677Z,43.80
2022-08-11T14:18:21.914Z,44.29
2022-08-11T14:19:21.903Z,44.09
2022-08-11T14:21:16.011Z,43.99
2022-08-11T14:22:16.012Z,44.09
2022-08-11T14:24:10.157Z,43.41
2022-08-11T14:25:10.150Z,43.41
2022-08-11T14:27:05.256Z,43.58
2022-08-11T14:28:31.164Z,44.58
2022-08-11T14:29:59.385Z,45.86
2022-08-11T14:31:01.795Z,46.37
2022-08-11T14:32:56.044Z,44.12
2022-08-11T14:33:59.586Z,43.92
2022-08-11T14:35:48.800Z,44.31
2022-08-11T14:36:48.646Z,43.62
2022-08-11T14:38:42.785Z,42.65
2022-08-11T14:39:42.806Z,43.41
2022-08-11T14:41:36.899Z,44.19
2022-08-11T14:42:36.897Z,43.62
2022-08-11T14:44:31.273Z,42.82
2022-08-11T14:45:58.368Z,42.43
2022-08-11T14:47:25.866Z,42.25
2022-08-11T14:48:25.566Z,41.94
2022-08-11T14:50:19.731Z,42.03
2022-08-11T14:51:19.707Z,42.33
2022-08-11T14:53:18.825Z,43.31
2022-08-11T14:54:13.822Z,42.62
2022-08-11T14:56:07.922Z,42.25
2022-08-11T14:57:07.924Z,41.94
2022-08-11T14:59:02.152Z,42.43
2022-08-11T15:00:02.235Z,41.64
2022-08-11T15:01:56.139Z,42.03
2022-08-11T15:02:56.139Z,42.72
2022-08-11T15:04:50.292Z,42.03
2022-08-11T15:05:57.215Z,42.02
2022-08-11T15:07:44.404Z,43.09
2022-08-11T15:08:44.393Z,42.70
2022-08-11T15:10:38.508Z,42.21
2022-08-11T15:11:38.510Z,42.80
2022-08-11T15:13:32.663Z,43.12
2022-08-11T15:14:32.706Z,43.51
2022-08-11T15:16:26.790Z,42.62
2022-08-11T15:17:38.421Z,42.82
2022-08-11T15:19:21.979Z,42.33
2022-08-11T15:20:21.957Z,42.31
2022-08-11T15:22:16.152Z,42.91
2022-08-11T15:23:16.145Z,42.62
2022-08-11T15:25:10.236Z,42.62
2022-08-11T15:26:10.233Z,43.21
2022-08-11T15:28:04.391Z,42.82
2022-08-11T15:29:04.384Z,43.41
2022-08-11T15:30:58.370Z,42.82
2022-08-11T15:31:58.369Z,42.62
2022-08-11T15:33:53.508Z,43.02
2022-08-11T15:34:53.496Z,42.82
2022-08-11T15:36:47.637Z,42.62
2022-08-11T15:37:47.645Z,42.91
2022-08-11T15:39:41.497Z,42.03
2022-08-11T15:40:41.483Z,42.72
2022-08-11T15:42:35.629Z,41.55
2022-08-11T15:43:35.627Z,42.13
2022-08-11T15:45:29.970Z,42.33
2022-08-11T15:46:29.964Z,41.94
2022-08-11T15:48:24.231Z,40.56
2022-08-11T15:49:24.224Z,41.52
2022-08-11T15:51:18.316Z,41.33
2022-08-11T15:52:18.319Z,41.92
2022-08-11T15:54:12.430Z,42.80
2022-08-11T15:55:12.416Z,43.19
2022-08-11T15:57:06.567Z,42.82
2022-08-11T15:58:06.564Z,42.62
2022-08-11T16:00:00.755Z,42.11
2022-08-11T16:01:04.114Z,42.41
2022-08-11T16:02:55.892Z,42.31
2022-08-11T16:04:07.189Z,42.50
2022-08-11T16:05:53.120Z,42.41
2022-08-11T16:06:50.006Z,42.31
2022-08-11T16:08:44.105Z,42.90
2022-08-11T16:09:46.921Z,43.09
2022-08-11T16:11:38.204Z,42.21
2022-08-11T16:12:38.199Z,42.90
2022-08-11T16:14:32.382Z,43.19
2022-08-11T16:15:32.373Z,43.29
2022-08-11T16:17:26.509Z,42.88
2022-08-11T16:18:26.504Z,42.97
2022-08-11T16:20:20.656Z,43.98
2022-08-11T16:21:33.585Z,42.60
2022-08-11T16:23:15.718Z,42.80
2022-08-11T16:27:04.889Z,43.46
2022-08-11T16:27:07.949Z,42.68
2022-08-11T16:27:14.018Z,42.88
2022-08-11T16:29:04.006Z,43.37
2022-08-11T16:30:04.000Z,43.85
2022-08-11T16:31:58.122Z,42.60
2022-08-11T16:32:58.118Z,42.97
2022-08-11T16:34:52.230Z,42.19
2022-08-11T16:35:52.219Z,42.58
2022-08-11T16:37:46.368Z,43.46
2022-08-11T16:38:46.367Z,43.56
2022-08-11T16:40:40.657Z,43.27
2022-08-11T16:41:40.641Z,43.17
2022-08-11T16:43:35.846Z,43.07
2022-08-11T16:44:37.643Z,42.48
2022-08-11T16:46:29.963Z,43.27
2022-08-11T16:48:03.480Z,43.17
2022-08-11T16:49:24.178Z,43.85
2022-08-11T16:50:24.175Z,43.76
2022-08-11T16:52:18.330Z,42.68
2022-08-11T16:53:18.333Z,43.07
2022-08-11T16:55:12.541Z,42.68
2022-08-11T16:56:12.535Z,43.95
2022-08-11T16:58:06.682Z,42.38
2022-08-11T16:59:06.667Z,43.17
2022-08-11T17:01:01.910Z,43.17
2022-08-11T17:02:01.788Z,43.85
2022-08-11T17:03:56.014Z,43.66
2022-08-11T17:04:56.001Z,43.46
2022-08-11T17:06:50.588Z,43.95
2022-08-11T17:07:50.211Z,43.56
2022-08-11T17:09:45.664Z,43.63
2022-08-11T17:10:53.672Z,44.15
2022-08-11T17:12:39.712Z,43.34
2022-08-11T17:13:39.718Z,43.24
2022-08-11T17:15:34.939Z,44.23
2022-08-11T17:16:34.927Z,44.13
2022-08-11T17:18:30.117Z,44.32
2022-08-11T17:20:40.683Z,43.63
2022-08-11T17:21:24.387Z,44.32
2022-08-11T17:22:24.378Z,43.73
2022-08-11T17:24:18.554Z,43.63
2022-08-11T17:25:18.544Z,43.63
2022-08-11T17:27:12.300Z,44.13
2022-08-11T17:28:12.298Z,44.13
2022-08-11T17:30:07.448Z,44.03
2022-08-11T17:31:19.993Z,44.03
2022-08-11T17:33:01.858Z,44.91
2022-08-11T17:34:01.751Z,44.89
2022-08-11T17:35:55.927Z,45.18
2022-08-11T17:36:55.900Z,45.67
2022-08-11T17:38:50.346Z,45.76
2022-08-11T17:39:50.388Z,45.18
2022-08-11T17:41:44.488Z,46.65
2022-08-11T17:42:44.486Z,46.45
2022-08-11T17:44:38.582Z,46.55
2022-08-11T17:45:38.574Z,46.84
2022-08-11T17:47:32.766Z,46.84
2022-08-11T17:48:32.723Z,47.02
2022-08-11T17:50:27.913Z,47.89
2022-08-11T17:51:27.857Z,48.19
2022-08-11T17:53:21.986Z,48.68
2022-08-11T17:54:24.546Z,48.46
2022-08-11T17:56:16.266Z,48.94
2022-08-11T17:57:20.442Z,48.94
2022-08-11T17:59:10.383Z,48.94
2022-08-11T18:00:10.349Z,49.24
2022-08-11T18:02:05.342Z,48.83
2022-08-11T18:03:04.475Z,49.61
2022-08-11T18:04:58.662Z,49.80
2022-08-11T18:05:58.646Z,48.73
2022-08-11T18:07:52.848Z,50.10
2022-08-11T18:08:52.837Z,50.49
2022-08-11T18:10:47.143Z,50.39
2022-08-11T18:12:11.206Z,50.07
2022-08-11T18:13:41.215Z,50.78
2022-08-11T18:14:41.213Z,50.95
2022-08-11T18:16:36.378Z,51.73
2022-08-11T18:17:36.372Z,51.14
2022-08-11T18:19:31.529Z,51.24
2022-08-11T18:20:31.525Z,51.53
2022-08-11T18:22:25.700Z,51.61
2022-08-11T18:23:46.163Z,51.73
2022-08-11T18:25:20.090Z,51.90
2022-08-11T18:26:20.073Z,52.48
2022-08-11T18:28:14.221Z,52.87
2022-08-11T18:29:14.223Z,53.36
2022-08-11T18:31:12.750Z,52.58
2022-08-11T18:32:08.039Z,52.46
2022-08-11T18:34:09.248Z,53.14
2022-08-11T18:35:02.357Z,53.24
2022-08-11T18:36:56.612Z,52.95
2022-08-11T18:37:56.616Z,52.56
2022-08-11T18:39:54.670Z,52.85
2022-08-11T18:40:51.987Z,52.95
2022-08-11T18:42:46.176Z,52.92
2022-08-11T18:43:46.181Z,52.63